Historical Data

TheSutherlands

Weather at Humberside Airport

Current Weather from Humberside Airport

The information displayed on this page is from the METAR reports produced by Humberside Airport. Note that there are times when these are not generated.

Weather Report

Coded Weather Report: 2022/08/14 12:20 EGNJ 141220Z 07006KT 040V140 CAVOK 30/13 Q1008

Report issued: 2022/08/14 at 12:20 UTC

Wind: light breeze from the east (070 degrees) at 6 knots (7 mph, 11 kph, Force 2)
Wind: direction varying between from the northeast (040 degrees) and from the southeast (140 degrees)
Weather: good visibility and no low cloud (ceiling and visibility OK)
Temperature: 30 C
Dewpoint: 13 C
Humidity: 35%
Pressure: 1008 hPa